Time;durP1;ratioP1;P1;durP2;ratioP2;P2;SDS_P1;SDS_P2;PMS_P1;PMS_P2;Temp;Humidity;BMP_temperature;BMP_pressure;BME280_temperature;BME280_humidity;BME280_pressure;Samples;Min_cycle;Max_cycle;Signal;HPM_P1;HPM_P2
2022/04/03 00:00:16;;;;;;;11.77;5.83;;;3.00;99.90;;;;;;5031364;28;20637;-62
2022/04/03 00:02:42;;;;;;;11.40;5.87;;;3.00;99.90;;;;;;5031578;28;20166;-62
2022/04/03 00:05:08;;;;;;;9.50;5.37;;;3.00;99.90;;;;;;5031235;28;20236;-62
2022/04/03 00:07:34;;;;;;;13.97;5.20;;;3.00;99.90;;;;;;5030174;28;20209;-61
2022/04/03 00:10:00;;;;;;;12.20;5.40;;;3.00;99.90;;;;;;5030649;28;20256;-62
2022/04/03 00:12:26;;;;;;;10.97;4.83;;;2.90;99.90;;;;;;5030813;28;20248;-62
2022/04/03 00:14:53;;;;;;;7.80;4.47;;;2.80;99.90;;;;;;5030881;28;20216;-61
2022/04/03 00:17:19;;;;;;;10.37;5.30;;;2.70;99.90;;;;;;5031190;28;20239;-61
2022/04/03 00:19:45;;;;;;;13.13;5.27;;;2.70;99.90;;;;;;5031269;28;20628;-62
2022/04/03 00:22:12;;;;;;;7.10;4.40;;;2.50;99.90;;;;;;5030688;28;20170;-64
2022/04/03 00:24:38;;;;;;;8.30;4.97;;;2.40;99.90;;;;;;5030478;28;20227;-65
2022/04/03 00:27:04;;;;;;;9.33;4.60;;;2.30;99.90;;;;;;5030559;28;20197;-65
2022/04/03 00:29:30;;;;;;;10.10;4.90;;;2.30;99.90;;;;;;5030412;28;20255;-65
2022/04/03 00:31:57;;;;;;;11.73;4.90;;;2.30;99.90;;;;;;5030619;28;20212;-63
2022/04/03 00:34:23;;;;;;;11.80;5.00;;;2.30;99.90;;;;;;5030696;28;20192;-60
2022/04/03 00:36:48;;;;;;;10.07;5.10;;;2.30;99.90;;;;;;5030711;28;20173;-63
2022/04/03 00:39:14;;;;;;;7.57;4.20;;;2.30;99.90;;;;;;5031002;28;20174;-62
2022/04/03 00:41:41;;;;;;;8.23;5.10;;;2.30;99.90;;;;;;5030553;28;20170;-62
2022/04/03 00:44:07;;;;;;;10.03;4.80;;;2.30;99.90;;;;;;5030386;28;20178;-62
2022/04/03 00:46:36;;;;;;;7.47;5.10;;;2.20;99.90;;;;;;5030165;28;20269;-63
2022/04/03 00:49:03;;;;;;;7.83;5.10;;;2.20;99.90;;;;;;5030528;28;20193;-63
2022/04/03 00:51:29;;;;;;;9.50;4.43;;;2.20;99.90;;;;;;5030709;28;20178;-63
2022/04/03 00:53:56;;;;;;;7.63;4.63;;;2.20;99.90;;;;;;5030041;28;20174;-63
2022/04/03 00:56:22;;;;;;;10.20;5.93;;;2.20;99.90;;;;;;5030455;28;20177;-62
2022/04/03 00:58:49;;;;;;;15.83;6.83;;;2.20;99.90;;;;;;5030132;28;20259;-63
2022/04/03 01:01:15;;;;;;;11.70;5.83;;;2.30;99.90;;;;;;5029913;28;20227;-63
2022/04/03 01:03:41;;;;;;;10.87;5.57;;;2.30;99.90;;;;;;5023548;28;20185;-63
2022/04/03 01:06:07;;;;;;;13.60;6.13;;;2.30;99.90;;;;;;5030023;28;20666;-63
2022/04/03 01:08:33;;;;;;;12.00;5.90;;;2.30;99.90;;;;;;5030086;28;20220;-63
2022/04/03 01:10:59;;;;;;;13.23;6.43;;;2.30;99.90;;;;;;5030126;28;20238;-63
2022/04/03 01:13:25;;;;;;;12.60;6.53;;;2.30;99.90;;;;;;5030127;28;20265;-63
2022/04/03 01:15:59;;;;;;;10.27;5.20;;;2.40;99.90;;;;;;5028992;28;20173;-63
2022/04/03 01:18:26;;;;;;;10.07;5.37;;;2.40;99.90;;;;;;5013799;28;20589;-63
2022/04/03 01:20:55;;;;;;;9.30;5.57;;;2.50;99.90;;;;;;5029983;28;20307;-63
2022/04/03 01:23:22;;;;;;;9.63;5.03;;;2.50;99.90;;;;;;5029591;28;20271;-61
2022/04/03 01:25:48;;;;;;;11.30;5.83;;;2.50;99.90;;;;;;5030064;28;20181;-61
2022/04/03 01:28:14;;;;;;;8.23;5.03;;;2.40;99.90;;;;;;5029717;28;20217;-61
2022/04/03 01:30:39;;;;;;;8.00;4.70;;;2.40;99.90;;;;;;5029971;28;20181;-61
2022/04/03 01:33:05;;;;;;;9.23;4.90;;;2.30;99.90;;;;;;5030008;28;20271;-62
2022/04/03 01:35:31;;;;;;;12.33;5.90;;;2.10;99.90;;;;;;5029609;28;20275;-59
2022/04/03 01:37:57;;;;;;;7.17;4.57;;;2.00;99.90;;;;;;5029315;28;20192;-60
2022/04/03 01:40:23;;;;;;;7.13;4.50;;;1.90;99.90;;;;;;5030011;28;20505;-60
2022/04/03 01:42:50;;;;;;;5.90;4.23;;;1.80;99.90;;;;;;5029953;28;20526;-60
2022/04/03 01:45:16;;;;;;;10.63;4.33;;;1.80;99.90;;;;;;5029911;28;20181;-59
2022/04/03 01:47:42;;;;;;;11.97;4.63;;;1.80;99.90;;;;;;5029288;28;20221;-60
2022/04/03 01:50:08;;;;;;;9.07;3.90;;;1.70;99.90;;;;;;5029993;28;20273;-60
2022/04/03 01:52:34;;;;;;;9.90;4.07;;;1.70;99.90;;;;;;5029792;28;20178;-59
2022/04/03 01:55:00;;;;;;;6.53;3.73;;;1.70;99.90;;;;;;5029771;28;20193;-59
2022/04/03 01:57:26;;;;;;;9.00;4.20;;;1.60;99.90;;;;;;5029858;28;20192;-59
2022/04/03 01:59:52;;;;;;;7.90;4.30;;;1.60;99.90;;;;;;5029582;28;20186;-60
2022/04/03 02:02:18;;;;;;;8.03;4.13;;;1.60;99.90;;;;;;5029829;28;20186;-60
2022/04/03 02:04:45;;;;;;;11.73;5.50;;;1.60;99.90;;;;;;5029257;28;20182;-60
2022/04/03 02:07:12;;;;;;;9.90;4.20;;;1.50;99.90;;;;;;5029631;28;20295;-59
2022/04/03 02:09:38;;;;;;;10.67;4.90;;;1.50;99.90;;;;;;5029331;28;20179;-59
2022/04/03 02:12:06;;;;;;;9.43;5.80;;;1.10;99.90;;;;;;5028214;28;20231;-59
2022/04/03 02:14:32;;;;;;;10.10;5.50;;;1.50;99.90;;;;;;5030025;28;20370;-59
2022/04/03 02:16:58;;;;;;;10.07;5.67;;;1.40;99.90;;;;;;5029295;28;20269;-60
2022/04/03 02:19:25;;;;;;;11.17;5.87;;;1.40;99.90;;;;;;5028185;28;20185;-60
2022/04/03 02:21:51;;;;;;;11.77;5.53;;;1.40;99.90;;;;;;5029460;28;20188;-60
2022/04/03 02:24:18;;;;;;;11.13;6.47;;;1.30;99.90;;;;;;5029229;28;20174;-60
2022/04/03 02:26:44;;;;;;;13.57;6.57;;;1.20;99.90;;;;;;5029622;28;20193;-59
2022/04/03 02:29:10;;;;;;;13.60;7.27;;;1.10;99.90;;;;;;5029295;28;20178;-60
2022/04/03 02:31:36;;;;;;;11.97;6.70;;;1.10;99.90;;;;;;5029337;28;20246;-60
2022/04/03 02:34:04;;;;;;;12.87;7.23;;;1.10;99.90;;;;;;5031729;28;20274;-59
2022/04/03 02:36:30;;;;;;;13.50;6.90;;;1.20;99.90;;;;;;5032644;28;20162;-59
2022/04/03 02:38:56;;;;;;;16.40;7.87;;;1.30;99.90;;;;;;5032872;28;20177;-59
2022/04/03 02:41:21;;;;;;;17.17;8.97;;;1.30;99.90;;;;;;5032913;28;20315;-59
2022/04/03 02:43:47;;;;;;;16.97;9.37;;;1.40;99.90;;;;;;5033139;28;20178;-60
2022/04/03 02:46:13;;;;;;;16.50;9.60;;;1.40;99.90;;;;;;5032618;28;20224;-60
2022/04/03 02:48:39;;;;;;;18.07;9.93;;;1.50;99.90;;;;;;5032726;28;20232;-60
2022/04/03 02:51:05;;;;;;;13.97;9.47;;;1.60;99.90;;;;;;5030888;28;20609;-59
2022/04/03 02:53:31;;;;;;;15.47;9.80;;;1.60;99.90;;;;;;5032925;28;20205;-59
2022/04/03 02:55:56;;;;;;;14.33;9.10;;;1.60;99.90;;;;;;5031264;28;20178;-60
2022/04/03 02:58:22;;;;;;;14.80;8.53;;;1.60;99.90;;;;;;5032529;28;20193;-60
2022/04/03 03:00:48;;;;;;;12.73;8.67;;;1.60;99.90;;;;;;5032591;28;20787;-60
2022/04/03 03:03:14;;;;;;;11.30;8.10;;;1.60;99.90;;;;;;5032354;28;20181;-60
2022/04/03 03:05:41;;;;;;;17.77;9.70;;;1.50;99.90;;;;;;5032546;28;20177;-60
2022/04/03 03:08:07;;;;;;;13.60;8.13;;;1.50;99.90;;;;;;5032464;28;20205;-60
2022/04/03 03:10:33;;;;;;;22.30;10.33;;;1.50;99.90;;;;;;5032564;28;20181;-60
2022/04/03 03:12:59;;;;;;;14.30;8.90;;;1.50;99.90;;;;;;5032304;28;20186;-62
2022/04/03 03:15:25;;;;;;;17.47;10.20;;;1.50;99.90;;;;;;5032590;28;20174;-61
2022/04/03 03:17:51;;;;;;;19.40;8.40;;;1.50;99.90;;;;;;5032096;28;20212;-61
2022/04/03 03:20:16;;;;;;;19.73;10.33;;;1.60;99.90;;;;;;5032156;28;20590;-61
2022/04/03 03:22:43;;;;;;;21.40;10.80;;;1.60;99.90;;;;;;5032020;28;20174;-62
2022/04/03 03:25:09;;;;;;;16.53;10.50;;;1.40;99.90;;;;;;5031709;28;20240;-62
2022/04/03 03:27:36;;;;;;;16.97;10.67;;;1.50;99.90;;;;;;5031760;28;20221;-61
2022/04/03 03:30:06;;;;;;;18.03;10.63;;;1.60;99.90;;;;;;5032232;28;20232;-61
2022/04/03 03:32:32;;;;;;;17.13;9.93;;;1.50;99.90;;;;;;5031640;28;20174;-62
2022/04/03 03:34:59;;;;;;;16.63;9.80;;;1.50;99.90;;;;;;5032209;28;20197;-62
2022/04/03 03:37:25;;;;;;;18.17;9.43;;;1.50;99.90;;;;;;5031773;28;20186;-62
2022/04/03 03:39:53;;;;;;;17.20;9.47;;;1.50;99.90;;;;;;5031668;28;20181;-61
2022/04/03 03:42:19;;;;;;;16.97;9.57;;;1.50;99.90;;;;;;5029604;28;20472;-60
2022/04/03 03:44:46;;;;;;;16.50;9.47;;;1.40;99.90;;;;;;5030935;28;20695;-62
2022/04/03 03:47:12;;;;;;;16.50;8.70;;;1.40;99.90;;;;;;5031195;28;20225;-61
2022/04/03 03:49:38;;;;;;;15.00;8.57;;;1.30;99.90;;;;;;5030291;28;20613;-61
2022/04/03 03:52:05;;;;;;;17.30;9.23;;;1.20;99.90;;;;;;5031717;28;20285;-60
2022/04/03 03:54:31;;;;;;;13.67;9.00;;;1.10;99.90;;;;;;5031145;28;20660;-61
2022/04/03 03:56:58;;;;;;;14.63;9.10;;;1.00;99.90;;;;;;5031563;28;20194;-61
2022/04/03 03:59:24;;;;;;;18.17;9.80;;;1.00;99.90;;;;;;5031059;28;20174;-61
2022/04/03 04:01:50;;;;;;;16.10;9.17;;;0.90;99.90;;;;;;5030813;28;20272;-61
2022/04/03 04:04:16;;;;;;;15.77;8.87;;;0.90;99.90;;;;;;5031499;28;20271;-61
2022/04/03 04:06:42;;;;;;;18.90;9.70;;;0.80;99.90;;;;;;5031008;28;20235;-62
2022/04/03 04:09:08;;;;;;;17.27;9.63;;;0.70;99.90;;;;;;5031114;28;20557;-61
2022/04/03 04:11:34;;;;;;;19.23;9.47;;;0.60;99.90;;;;;;5029352;28;20181;-62
2022/04/03 04:14:00;;;;;;;17.40;9.60;;;0.50;99.90;;;;;;5031016;28;20178;-61
2022/04/03 04:16:26;;;;;;;17.70;9.13;;;1.00;99.90;;;;;;5031172;28;20206;-61
2022/04/03 04:18:52;;;;;;;13.73;9.40;;;0.60;99.90;;;;;;5031242;28;20241;-61
2022/04/03 04:21:18;;;;;;;19.37;9.47;;;0.50;99.90;;;;;;5031081;28;20653;-61
2022/04/03 04:23:43;;;;;;;15.67;10.13;;;0.50;99.90;;;;;;5030914;28;20179;-61
2022/04/03 04:26:09;;;;;;;17.63;10.23;;;0.40;99.90;;;;;;5031089;28;20571;-62
2022/04/03 04:28:36;;;;;;;16.83;10.67;;;0.40;99.90;;;;;;5030805;28;20206;-59
2022/04/03 04:31:02;;;;;;;21.40;11.80;;;0.40;99.90;;;;;;5030703;28;20181;-59
2022/04/03 04:33:27;;;;;;;20.73;12.03;;;-0.40;99.90;;;;;;5030926;28;20178;-59
2022/04/03 04:35:53;;;;;;;23.43;12.80;;;0.50;99.90;;;;;;5029918;28;20170;-59
2022/04/03 04:38:19;;;;;;;23.20;13.33;;;0.60;99.90;;;;;;5030445;28;20232;-59
2022/04/03 04:40:45;;;;;;;20.83;13.07;;;0.60;99.90;;;;;;5030391;28;20170;-59
2022/04/03 04:43:11;;;;;;;30.50;14.07;;;0.70;99.90;;;;;;5030545;28;20679;-59
2022/04/03 04:45:37;;;;;;;30.23;13.90;;;0.60;99.90;;;;;;5030406;28;20186;-59
2022/04/03 04:48:04;;;;;;;20.03;12.47;;;0.60;99.90;;;;;;5030414;28;20209;-60
2022/04/03 04:50:31;;;;;;;21.27;12.67;;;0.70;99.90;;;;;;5030571;28;20202;-60
2022/04/03 04:52:58;;;;;;;16.70;10.37;;;0.70;99.90;;;;;;5030408;28;20239;-60
2022/04/03 04:55:25;;;;;;;24.07;11.93;;;0.70;99.90;;;;;;5030590;28;20212;-60
2022/04/03 04:57:56;;;;;;;23.27;12.10;;;0.80;99.90;;;;;;5030095;28;20225;-60
2022/04/03 05:00:24;;;;;;;20.73;11.33;;;0.80;99.90;;;;;;5030253;28;20181;-61
2022/04/03 05:02:50;;;;;;;21.57;12.00;;;0.90;99.90;;;;;;5030352;28;20174;-60
2022/04/03 05:05:20;;;;;;;18.27;11.40;;;0.90;99.90;;;;;;5030603;28;20236;-60
2022/04/03 05:07:47;;;;;;;18.87;11.80;;;0.70;99.90;;;;;;5028665;28;20213;-62
2022/04/03 05:10:15;;;;;;;21.23;11.13;;;0.60;99.90;;;;;;5028936;28;20620;-60
2022/04/03 05:12:42;;;;;;;17.97;10.93;;;0.50;99.90;;;;;;5029743;28;20228;-60
2022/04/03 05:15:11;;;;;;;22.37;10.90;;;0.40;99.90;;;;;;5030178;28;20197;-60
2022/04/03 05:17:38;;;;;;;18.07;10.60;;;0.50;99.90;;;;;;5030201;28;20173;-60
2022/04/03 05:20:05;;;;;;;16.73;10.30;;;0.40;99.90;;;;;;5030499;28;20170;-60
2022/04/03 05:22:30;;;;;;;20.40;11.00;;;0.30;99.90;;;;;;5029834;28;20177;-60
2022/04/03 05:24:56;;;;;;;20.90;10.57;;;0.20;99.90;;;;;;5029911;28;20196;-60
2022/04/03 05:27:22;;;;;;;21.07;10.90;;;0.20;99.90;;;;;;5029734;28;20348;-60
2022/04/03 05:29:48;;;;;;;21.33;11.97;;;0.20;99.90;;;;;;5029853;28;20636;-60
2022/04/03 05:32:14;;;;;;;23.40;11.50;;;0.20;99.90;;;;;;5030021;28;20197;-60
2022/04/03 05:34:40;;;;;;;22.47;12.17;;;0.10;99.90;;;;;;5029795;28;20703;-60
2022/04/03 05:37:07;;;;;;;20.87;12.50;;;0.10;99.90;;;;;;5030101;28;20178;-60
2022/04/03 05:39:33;;;;;;;24.03;12.60;;;0.10;99.90;;;;;;5029930;28;20644;-60
2022/04/03 05:41:58;;;;;;;26.63;13.27;;;0.10;99.90;;;;;;5027858;28;20265;-60
2022/04/03 05:44:24;;;;;;;23.57;13.60;;;0.20;99.90;;;;;;5029688;28;20182;-60
2022/04/03 05:46:51;;;;;;;25.63;14.50;;;0.20;99.90;;;;;;5029621;28;20228;-61
2022/04/03 05:49:18;;;;;;;25.93;14.70;;;0.30;99.90;;;;;;5029598;28;20207;-60
2022/04/03 05:51:44;;;;;;;28.20;16.17;;;0.30;99.90;;;;;;5029688;28;20213;-60
2022/04/03 05:54:10;;;;;;;30.93;16.60;;;0.30;99.90;;;;;;5030061;28;20176;-60
2022/04/03 05:56:37;;;;;;;29.57;16.43;;;0.30;99.90;;;;;;5029610;28;20249;-59
2022/04/03 05:59:02;;;;;;;32.70;18.13;;;0.40;99.90;;;;;;5028053;28;20174;-59
2022/04/03 06:01:28;;;;;;;33.33;17.57;;;0.40;99.90;;;;;;5029563;28;20637;-59
2022/04/03 06:03:54;;;;;;;34.70;18.17;;;0.30;99.90;;;;;;5029660;28;20622;-59
2022/04/03 06:06:20;;;;;;;30.17;17.37;;;0.30;99.90;;;;;;5029658;28;20182;-59
2022/04/03 06:08:46;;;;;;;40.17;18.57;;;0.30;99.90;;;;;;5031700;28;20652;-60
2022/04/03 06:11:12;;;;;;;32.80;17.93;;;1.20;99.90;;;;;;5032971;28;20178;-60
2022/04/03 06:13:37;;;;;;;35.83;18.60;;;0.40;99.90;;;;;;5033266;28;20189;-60
2022/04/03 06:16:04;;;;;;;32.70;17.43;;;0.40;99.90;;;;;;5033133;28;20182;-60
2022/04/03 06:18:29;;;;;;;33.70;18.00;;;0.50;99.90;;;;;;5033146;28;20174;-60
2022/04/03 06:20:55;;;;;;;31.60;17.77;;;0.50;99.90;;;;;;5033015;28;20231;-60
2022/04/03 06:23:23;;;;;;;34.70;16.90;;;0.50;99.90;;;;;;5033367;28;20170;-60
2022/04/03 06:25:56;;;;;;;34.43;16.93;;;0.50;99.90;;;;;;5033339;28;20263;-60
2022/04/03 06:28:22;;;;;;;32.07;15.97;;;0.60;99.90;;;;;;5033295;28;20296;-60
2022/04/03 06:30:48;;;;;;;25.53;14.60;;;0.60;99.90;;;;;;5033957;28;20257;-60
2022/04/03 06:33:16;;;;;;;28.37;14.07;;;0.60;99.90;;;;;;5033319;28;20675;-61
2022/04/03 06:35:43;;;;;;;27.90;14.20;;;0.70;99.90;;;;;;5033083;28;20198;-58
2022/04/03 06:38:10;;;;;;;21.33;13.23;;;0.70;99.90;;;;;;5032827;28;20312;-62
2022/04/03 06:40:37;;;;;;;27.03;13.13;;;0.80;99.90;;;;;;5033279;28;20180;-60
2022/04/03 06:43:03;;;;;;;27.40;13.30;;;0.80;99.90;;;;;;5032417;28;20180;-61
2022/04/03 06:45:30;;;;;;;24.87;13.47;;;0.80;99.90;;;;;;5032606;28;20257;-61
2022/04/03 06:48:00;;;;;;;28.17;13.43;;;0.80;99.90;;;;;;5030694;28;20312;-61
2022/04/03 06:50:26;;;;;;;29.80;15.17;;;0.80;99.90;;;;;;5032205;28;20177;-61
2022/04/03 06:52:51;;;;;;;29.73;15.50;;;0.90;99.90;;;;;;5032643;28;20182;-59
2022/04/03 06:55:17;;;;;;;31.37;16.27;;;1.00;99.90;;;;;;5032460;28;20178;-61
2022/04/03 06:57:43;;;;;;;31.50;15.40;;;1.00;99.90;;;;;;5034300;28;20181;-66
2022/04/03 07:00:13;;;;;;;33.20;17.67;;;0.90;99.90;;;;;;5027633;28;20235;-67
2022/04/03 07:02:39;;;;;;;35.63;17.20;;;1.00;99.90;;;;;;5032798;28;20169;-66
2022/04/03 07:05:05;;;;;;;30.30;17.13;;;1.10;99.90;;;;;;5042426;28;20660;-65
2022/04/03 07:07:32;;;;;;;44.03;18.30;;;1.20;99.90;;;;;;5037222;28;20234;-66
2022/04/03 07:09:58;;;;;;;32.47;17.87;;;1.20;99.90;;;;;;5036950;28;20252;-70
2022/04/03 07:12:23;;;;;;;31.63;17.93;;;1.30;99.90;;;;;;5032680;28;20212;-71
2022/04/03 07:14:50;;;;;;;32.10;17.33;;;1.40;99.90;;;;;;5033059;28;20828;-70
2022/04/03 07:17:16;;;;;;;42.20;18.80;;;1.50;99.90;;;;;;5033455;28;20170;-70
2022/04/03 07:19:43;;;;;;;28.87;16.23;;;1.60;99.90;;;;;;5031596;28;20166;-70
2022/04/03 07:22:08;;;;;;;36.33;17.53;;;1.80;99.90;;;;;;5028665;28;20265;-66
2022/04/03 07:24:34;;;;;;;40.07;17.43;;;1.90;99.90;;;;;;5032167;28;20631;-66
2022/04/03 07:27:00;;;;;;;27.87;15.97;;;1.90;99.90;;;;;;5032271;28;20208;-66
2022/04/03 07:29:26;;;;;;;28.67;16.53;;;2.00;99.90;;;;;;5030339;28;20178;-66
2022/04/03 07:31:53;;;;;;;27.73;16.07;;;2.20;99.90;;;;;;5032045;28;20181;-66
2022/04/03 07:34:19;;;;;;;26.90;15.43;;;2.30;99.90;;;;;;5033221;28;20173;-66
2022/04/03 07:36:45;;;;;;;30.20;15.10;;;2.40;99.90;;;;;;5032053;28;20165;-65
2022/04/03 07:39:12;;;;;;;27.60;14.80;;;2.60;99.90;;;;;;5031084;28;20184;-67
2022/04/03 07:41:38;;;;;;;25.80;14.63;;;2.60;99.90;;;;;;5030231;28;20174;-66
2022/04/03 07:44:08;;;;;;;23.30;14.63;;;2.80;99.90;;;;;;5022755;28;20714;-69
2022/04/03 07:46:37;;;;;;;27.17;14.57;;;2.90;99.90;;;;;;5012170;28;20221;-66
2022/04/03 07:49:04;;;;;;;23.33;13.40;;;3.00;99.90;;;;;;5025047;28;20192;-66
2022/04/03 07:51:31;;;;;;;28.47;13.93;;;3.10;99.90;;;;;;5028370;28;20748;-67
2022/04/03 07:53:57;;;;;;;21.50;12.83;;;3.20;99.90;;;;;;5031321;28;20185;-67
2022/04/03 07:56:23;;;;;;;24.73;13.13;;;3.30;99.90;;;;;;5030501;28;20335;-66
2022/04/03 07:58:49;;;;;;;26.07;14.23;;;3.50;99.90;;;;;;5030886;28;20699;-66
2022/04/03 08:01:15;;;;;;;21.30;13.13;;;3.60;99.90;;;;;;5031592;28;20170;-68
2022/04/03 08:03:41;;;;;;;27.43;12.60;;;3.70;99.90;;;;;;5034602;28;20173;-60
2022/04/03 08:06:07;;;;;;;23.83;13.63;;;3.90;99.90;;;;;;5041070;28;20188;-69
2022/04/03 08:08:33;;;;;;;20.53;11.83;;;4.00;99.90;;;;;;5032186;28;20209;-69
2022/04/03 08:10:58;;;;;;;18.50;11.87;;;4.10;99.90;;;;;;5044664;28;20256;-71
2022/04/03 08:13:24;;;;;;;18.33;10.60;;;4.30;99.90;;;;;;5040355;28;20186;-74
2022/04/03 08:15:51;;;;;;;19.87;11.87;;;4.40;99.90;;;;;;5030937;28;20213;-64
2022/04/03 08:18:17;;;;;;;15.93;10.80;;;4.70;99.90;;;;;;5034606;28;20179;-61
2022/04/03 08:20:44;;;;;;;15.70;10.07;;;5.80;99.90;;;;;;5031512;28;20306;-67
2022/04/03 08:23:10;;;;;;;17.50;10.23;;;8.90;99.90;;;;;;5031758;28;20166;-62
2022/04/03 08:25:37;;;;;;;14.60;9.77;;;11.10;99.90;;;;;;5030860;28;20181;-70
2022/04/03 08:28:03;;;;;;;14.60;9.47;;;12.20;99.90;;;;;;5029562;28;20252;-71
2022/04/03 08:30:32;;;;;;;17.95;9.48;;;14.00;99.90;;;;;;5030442;28;20236;-62
2022/04/03 08:32:59;;;;;;;14.68;9.48;;;14.50;99.90;;;;;;5031156;28;20178;-62
2022/04/03 08:35:26;;;;;;;12.88;8.60;;;15.40;99.90;;;;;;5030974;28;20174;-62
2022/04/03 08:37:53;;;;;;;14.73;9.32;;;16.00;99.90;;;;;;5030629;28;20243;-61
2022/04/03 08:40:20;;;;;;;17.83;9.40;;;16.00;99.90;;;;;;5032094;28;20204;-61
2022/04/03 08:42:46;;;;;;;14.15;8.45;;;16.00;99.90;;;;;;5030892;28;20181;-63
2022/04/03 08:45:12;;;;;;;15.23;8.55;;;15.70;99.90;;;;;;5030593;28;20235;-62
2022/04/03 08:47:45;;;;;;;11.90;8.30;;;16.40;99.90;;;;;;5030169;28;20312;-62
2022/04/03 08:50:13;;;;;;;10.93;7.82;;;16.30;99.90;;;;;;5011165;28;20225;-62
2022/04/03 08:52:41;;;;;;;13.20;8.40;;;16.90;99.90;;;;;;5011076;28;20234;-63
2022/04/03 08:55:07;;;;;;;12.48;8.68;;;16.60;99.90;;;;;;5028493;28;20181;-63
2022/04/03 08:57:33;;;;;;;12.80;7.90;;;16.20;99.90;;;;;;5030876;28;20170;-63
2022/04/03 09:00:00;;;;;;;14.70;8.20;;;16.50;99.90;;;;;;5030387;28;20522;-62
2022/04/03 09:02:26;;;;;;;8.95;7.82;;;16.40;99.90;;;;;;5029918;28;20220;-62
2022/04/03 09:04:52;;;;;;;12.20;7.82;;;16.40;99.90;;;;;;5029239;28;20182;-62
2022/04/03 09:07:18;;;;;;;11.20;7.60;;;15.00;99.90;;;;;;5030358;28;20197;-62
2022/04/03 09:09:46;;;;;;;11.70;7.60;;;13.90;99.90;;;;;;5030362;28;20243;-62
2022/04/03 09:12:16;;;;;;;9.68;6.75;;;13.10;99.90;;;;;;5030356;28;20165;-63
2022/04/03 09:14:48;;;;;;;10.63;7.50;;;14.30;99.90;;;;;;5030429;28;20228;-63
2022/04/03 09:17:44;;;;;;;12.10;7.00;;;16.00;99.90;;;;;;5029594;28;20162;-63
2022/04/03 09:20:13;;;;;;;9.50;5.78;;;17.50;99.90;;;;;;5009140;28;20197;-63
2022/04/03 09:22:42;;;;;;;10.75;5.65;;;18.10;99.90;;;;;;5010684;28;20166;-63
2022/04/03 09:25:10;;;;;;;7.82;4.22;;;18.20;99.90;;;;;;5021273;28;20182;-67
2022/04/03 09:27:51;;;;;;;7.88;4.82;;;18.20;99.90;;;;;;5030229;28;20205;-66
2022/04/03 09:30:18;;;;;;;6.78;3.80;;;19.00;99.90;;;;;;5028960;28;20166;-68
2022/04/03 09:32:54;;;;;;;4.57;2.60;;;19.80;99.90;;;;;;5030156;28;20571;-68
2022/04/03 09:35:24;;;;;;;3.22;1.92;;;20.30;99.90;;;;;;5030194;28;20256;-66
2022/04/03 09:38:15;;;;;;;4.90;2.28;;;20.30;99.90;;;;;;5030166;28;20648;-67
2022/04/03 09:40:48;;;;;;;4.00;1.95;;;21.00;99.90;;;;;;5030029;28;20217;-67
2022/04/03 09:43:18;;;;;;;4.68;1.92;;;20.20;99.40;;;;;;5031305;28;20175;-67
2022/04/03 09:45:48;;;;;;;6.68;2.45;;;21.20;99.40;;;;;;5033681;28;20324;-65
2022/04/03 09:48:26;;;;;;;4.93;1.98;;;21.10;99.40;;;;;;5033581;28;20311;-65
2022/04/03 09:51:12;;;;;;;8.02;2.72;;;20.30;98.30;;;;;;5029333;28;20179;-65
2022/04/03 09:53:48;;;;;;;5.32;3.15;;;20.50;99.10;;;;;;5033899;28;20182;-65
2022/04/03 09:56:31;;;;;;;6.90;3.45;;;19.90;98.40;;;;;;5032958;28;20182;-65
2022/04/03 09:58:59;;;;;;;7.07;3.70;;;20.00;98.30;;;;;;5030429;28;20265;-64
2022/04/03 10:01:38;;;;;;;5.53;3.15;;;20.50;98.00;;;;;;5031268;28;20205;-65
2022/04/03 10:04:09;;;;;;;11.63;3.90;;;20.50;98.10;;;;;;5033975;28;20166;-73
2022/04/03 10:06:38;;;;;;;7.30;4.43;;;20.80;98.50;;;;;;5031488;28;20193;-73
2022/04/03 10:09:04;;;;;;;5.95;3.80;;;21.50;97.90;;;;;;5013811;28;20320;-73
2022/04/03 10:11:30;;;;;;;5.82;3.70;;;21.30;97.50;;;;;;5020629;28;20181;-73
2022/04/03 10:13:57;;;;;;;11.30;4.57;;;21.80;96.90;;;;;;5033393;28;20619;-73
2022/04/03 10:16:23;;;;;;;9.43;5.25;;;21.90;97.10;;;;;;5021343;28;20239;-72
2022/04/03 10:18:50;;;;;;;8.65;4.43;;;21.20;96.60;;;;;;5033584;28;20640;-72
2022/04/03 10:21:21;;;;;;;7.50;4.60;;;21.90;96.10;;;;;;5032627;28;20656;-72
2022/04/03 10:23:52;;;;;;;5.43;4.28;;;20.20;95.20;;;;;;5033079;28;20177;-74
2022/04/03 10:26:20;;;;;;;6.72;3.90;;;20.30;96.40;;;;;;5034558;28;20245;-74
2022/04/03 10:28:56;;;;;;;7.47;4.53;;;20.70;95.80;;;;;;5032923;28;20386;-74
2022/04/03 10:31:22;;;;;;;7.55;4.10;;;20.20;95.20;;;;;;5033455;28;20181;-74
2022/04/03 10:33:50;;;;;;;6.40;3.88;;;20.70;95.20;;;;;;5033861;28;20249;-74
2022/04/03 10:36:29;;;;;;;6.38;4.07;;;21.10;95.10;;;;;;5033826;28;20504;-73
2022/04/03 10:39:08;;;;;;;8.00;4.50;;;21.40;94.50;;;;;;5031665;28;20276;-74
2022/04/03 10:41:43;;;;;;;7.60;4.15;;;21.40;93.10;;;;;;5033555;28;20218;-73
2022/04/03 10:44:23;;;;;;;5.13;3.97;;;21.50;93.30;;;;;;5031198;28;20174;-74
2022/04/03 10:47:03;;;;;;;9.85;3.72;;;21.90;93.30;;;;;;5031139;28;20229;-74
2022/04/03 10:49:30;;;;;;;6.22;3.90;;;21.80;91.90;;;;;;5032441;28;20206;-73
2022/04/03 10:52:23;;;;;;;6.35;3.85;;;21.10;92.60;;;;;;5033598;28;20166;-73
2022/04/03 10:54:54;;;;;;;7.93;3.97;;;20.40;92.00;;;;;;5031297;28;20182;-72
2022/04/03 10:57:50;;;;;;;7.90;3.72;;;21.20;92.30;;;;;;5032762;28;20169;-72
2022/04/03 11:00:16;;;;;;;3.83;3.00;;;21.10;91.50;;;;;;5031891;28;20261;-72
2022/04/03 11:02:49;;;;;;;4.15;2.95;;;21.90;91.10;;;;;;5032293;28;20178;-72
2022/04/03 11:05:27;;;;;;;4.10;2.80;;;21.50;89.80;;;;;;5030620;28;20671;-73
2022/04/03 11:07:59;;;;;;;4.63;2.50;;;21.90;90.00;;;;;;5031284;28;20229;-75
2022/04/03 11:10:48;;;;;;;4.22;2.90;;;22.20;88.70;;;;;;5031472;28;20169;-73
2022/04/03 11:13:18;;;;;;;7.50;2.95;;;22.30;90.10;;;;;;5023768;28;20272;-74
2022/04/03 11:15:57;;;;;;;4.53;2.88;;;22.00;88.80;;;;;;5028274;28;20182;-74
2022/04/03 11:18:33;;;;;;;3.55;2.78;;;22.10;89.60;;;;;;5026659;28;20704;-74
2022/04/03 11:21:08;;;;;;;3.95;2.85;;;21.90;85.50;;;;;;5031056;28;20189;-74
2022/04/03 11:23:44;;;;;;;3.72;2.78;;;22.10;86.80;;;;;;5032309;28;20177;-73
2022/04/03 11:26:10;;;;;;;8.35;3.50;;;21.10;85.40;;;;;;5022728;28;20263;-73
2022/04/03 11:28:36;;;;;;;3.35;2.90;;;20.70;87.60;;;;;;5032289;28;20668;-73
2022/04/03 11:31:04;;;;;;;4.90;2.92;;;21.40;88.00;;;;;;5031706;28;20185;-73
2022/04/03 11:33:32;;;;;;;3.72;2.85;;;19.80;87.80;;;;;;5032201;28;20170;-73
2022/04/03 11:36:06;;;;;;;3.17;2.67;;;18.80;88.60;;;;;;5032041;28;20172;-72
2022/04/03 11:38:37;;;;;;;4.45;3.10;;;19.00;88.40;;;;;;5032220;28;20210;-72
2022/04/03 11:41:10;;;;;;;3.55;2.38;;;19.30;89.40;;;;;;5031906;28;20713;-71
2022/04/03 11:43:35;;;;;;;3.35;1.58;;;18.10;87.20;;;;;;5032433;28;20190;-72
2022/04/03 11:46:03;;;;;;;3.30;1.35;;;18.40;84.50;;;;;;5032602;28;20166;-72
2022/04/03 11:48:33;;;;;;;1.33;1.00;;;19.60;83.60;;;;;;5032595;28;20267;-72
2022/04/03 11:51:11;;;;;;;1.90;1.40;;;20.60;80.90;;;;;;5032497;28;20177;-72
2022/04/03 11:53:41;;;;;;;1.48;1.27;;;20.20;80.80;;;;;;5032331;28;20252;-72
2022/04/03 11:56:11;;;;;;;2.45;1.58;;;19.90;82.50;;;;;;5031093;28;20170;-71
2022/04/03 11:58:43;;;;;;;2.35;1.23;;;19.50;82.20;;;;;;5032520;28;20659;-73
2022/04/03 12:01:09;;;;;;;2.10;1.77;;;18.30;80.00;;;;;;5031095;28;20174;-72
2022/04/03 12:03:36;;;;;;;2.28;1.42;;;17.30;81.70;;;;;;5032210;28;20177;-72
2022/04/03 12:06:18;;;;;;;2.75;1.55;;;16.40;84.80;;;;;;5031583;28;20180;-71
2022/04/03 12:08:46;;;;;;;2.80;1.85;;;15.20;84.20;;;;;;5032468;28;20209;-72
2022/04/03 12:11:24;;;;;;;7.15;2.38;;;14.80;88.00;;;;;;5032465;28;20281;-71
2022/04/03 12:13:58;;;;;;;3.50;2.22;;;14.40;89.90;;;;;;5031586;28;20174;-72
2022/04/03 12:16:31;;;;;;;4.75;2.22;;;14.30;91.20;;;;;;5027281;28;20174;-72
2022/04/03 12:19:05;;;;;;;3.92;2.13;;;14.70;92.50;;;;;;5030486;28;20178;-72
2022/04/03 12:21:36;;;;;;;4.60;1.90;;;15.00;91.00;;;;;;5031055;28;20231;-72
2022/04/03 12:24:04;;;;;;;2.20;1.63;;;14.70;88.20;;;;;;5030416;28;20277;-73
2022/04/03 12:26:31;;;;;;;3.65;1.30;;;14.60;87.50;;;;;;5031317;28;20166;-72
2022/04/03 12:28:57;;;;;;;2.13;1.20;;;14.00;86.50;;;;;;5031041;28;20217;-72
2022/04/03 12:31:31;;;;;;;1.90;1.10;;;13.90;86.70;;;;;;5031242;28;20643;-73
2022/04/03 12:34:10;;;;;;;2.60;1.58;;;14.00;87.60;;;;;;5030971;28;20178;-72
2022/04/03 12:36:39;;;;;;;2.95;1.60;;;14.20;89.40;;;;;;5013220;28;20205;-72
2022/04/03 12:39:05;;;;;;;2.35;1.30;;;13.10;88.00;;;;;;5029303;28;20668;-71
2022/04/03 12:41:31;;;;;;;2.55;1.40;;;13.30;87.60;;;;;;5030045;28;20251;-71
2022/04/03 12:43:58;;;;;;;3.00;1.58;;;13.30;90.20;;;;;;5030813;28;20644;-71
2022/04/03 12:46:34;;;;;;;2.78;1.00;;;13.20;90.00;;;;;;5019891;28;20213;-71